createdAt,value
2023-01-15T00:04:21.220Z,5.03
2023-01-15T00:15:02.301Z,5.68
2023-01-15T00:21:15.274Z,5.15
2023-01-15T00:27:44.443Z,4.85
2023-01-15T00:33:54.383Z,6.97
2023-01-15T00:37:00.097Z,9.45
2023-01-15T00:43:15.985Z,3.05
2023-01-15T00:49:25.211Z,6.95
2023-01-15T00:55:36.207Z,3.95
2023-01-15T01:01:45.708Z,4.05
2023-01-15T01:07:54.912Z,5.57
2023-01-15T01:14:26.383Z,4.85
2023-01-15T01:20:35.573Z,3.80
2023-01-15T01:26:46.364Z,2.67
2023-01-15T01:32:57.026Z,2.05
2023-01-15T01:36:00.369Z,4.45
2023-01-15T01:42:18.553Z,2.22
2023-01-15T01:48:35.289Z,2.00
2023-01-15T01:54:47.922Z,2.45
2023-01-15T02:00:57.910Z,2.28
2023-01-15T02:07:09.092Z,1.92
2023-01-15T02:17:57.748Z,2.38
2023-01-15T02:24:19.658Z,2.72
2023-01-15T02:30:34.402Z,5.88
2023-01-15T02:40:27.396Z,6.25
2023-01-15T02:46:40.787Z,5.70
2023-01-15T02:52:56.564Z,7.45
2023-01-15T02:59:10.491Z,5.43
2023-01-15T03:05:26.937Z,3.83
2023-01-15T03:08:52.238Z,7.00
2023-01-15T03:19:26.295Z,6.90
2023-01-15T03:32:57.909Z,10.40
2023-01-15T03:39:07.391Z,3.33
2023-01-15T03:45:23.414Z,8.73
2023-01-15T03:51:41.588Z,9.70
2023-01-15T03:57:55.571Z,8.35
2023-01-15T04:04:05.529Z,10.60
2023-01-15T04:06:45.217Z,4.22
2023-01-15T04:12:54.836Z,5.97
2023-01-15T04:19:23.044Z,10.13
2023-01-15T04:25:33.514Z,9.35
2023-01-15T04:31:42.908Z,4.80
2023-01-15T04:37:55.887Z,8.75
2023-01-15T04:41:18.592Z,8.38
2023-01-15T04:47:32.561Z,5.18
2023-01-15T04:53:41.571Z,11.30
2023-01-15T04:59:52.176Z,8.27
2023-01-15T05:06:29.333Z,10.20
2023-01-15T05:12:40.079Z,14.38
2023-01-15T05:19:04.106Z,13.48
2023-01-15T05:25:27.671Z,10.63
2023-01-15T05:31:36.837Z,12.63
2023-01-15T05:37:45.793Z,13.10
2023-01-15T05:43:57.266Z,6.18
2023-01-15T05:47:06.134Z,8.13
2023-01-15T05:50:07.901Z,4.70
2023-01-15T05:56:16.867Z,12.57
2023-01-15T06:02:28.298Z,4.97
2023-01-15T06:08:37.481Z,9.93
2023-01-15T06:18:45.166Z,8.95
2023-01-15T06:25:07.909Z,10.88
2023-01-15T06:31:19.475Z,10.50
2023-01-15T06:37:30.634Z,8.95
2023-01-15T06:43:59.351Z,14.80
2023-01-15T06:50:08.783Z,11.20
2023-01-15T06:52:41.900Z,8.55
2023-01-15T06:55:20.169Z,9.90
2023-01-15T06:58:22.515Z,12.10
2023-01-15T07:01:31.086Z,5.97
2023-01-15T07:03:59.948Z,10.35
2023-01-15T07:06:35.378Z,13.38
2023-01-15T07:09:14.365Z,11.95
2023-01-15T07:12:08.974Z,10.43
2023-01-15T07:14:41.806Z,8.77
2023-01-15T07:17:16.814Z,16.27
2023-01-15T07:19:46.422Z,6.63
2023-01-15T07:22:15.086Z,11.90
2023-01-15T07:24:45.151Z,9.43
2023-01-15T07:27:27.135Z,19.02
2023-01-15T07:29:57.791Z,13.13
2023-01-15T07:32:32.647Z,6.35
2023-01-15T07:35:03.409Z,10.77
2023-01-15T07:37:45.496Z,8.73
2023-01-15T07:40:42.881Z,8.13
2023-01-15T07:43:50.552Z,6.07
2023-01-15T07:50:00.232Z,9.73
2023-01-15T07:52:44.181Z,7.35
2023-01-15T07:56:07.243Z,16.65
2023-01-15T07:59:27.628Z,13.52
2023-01-15T08:02:13.288Z,21.75
2023-01-15T08:04:57.824Z,18.80
2023-01-15T08:07:39.450Z,9.98
2023-01-15T08:14:48.082Z,15.10
2023-01-15T08:18:07.613Z,14.05
2023-01-15T08:20:38.855Z,13.23
2023-01-15T08:23:46.563Z,12.38
2023-01-15T08:26:23.436Z,19.98
2023-01-15T08:28:59.619Z,20.25
2023-01-15T08:31:31.288Z,19.20
2023-01-15T08:34:01.987Z,13.48
2023-01-15T08:37:00.180Z,18.95
2023-01-15T08:39:30.641Z,18.08
2023-01-15T08:42:12.391Z,16.45
2023-01-15T08:44:43.111Z,14.18
2023-01-15T08:47:30.912Z,13.13
2023-01-15T08:50:01.861Z,17.83
2023-01-15T08:52:48.490Z,24.33
2023-01-15T08:55:23.218Z,28.95
2023-01-15T08:57:55.652Z,20.02
2023-01-15T09:00:38.062Z,13.13
2023-01-15T09:03:21.158Z,19.35
2023-01-15T09:05:49.925Z,15.05
2023-01-15T09:08:23.290Z,17.40
2023-01-15T09:10:52.073Z,16.00
2023-01-15T09:13:44.324Z,20.27
2023-01-15T09:16:17.788Z,21.50
2023-01-15T09:19:02.927Z,31.90
2023-01-15T09:21:31.595Z,19.88
2023-01-15T09:24:05.577Z,17.65
2023-01-15T09:26:43.340Z,19.70
2023-01-15T09:29:13.158Z,19.40
2023-01-15T09:31:50.099Z,22.08
2023-01-15T09:34:18.844Z,13.48
2023-01-15T09:37:43.424Z,27.33
2023-01-15T09:40:42.104Z,25.40
2023-01-15T09:43:29.294Z,17.10
2023-01-15T09:46:19.517Z,11.68
2023-01-15T09:49:04.897Z,11.65
2023-01-15T09:51:44.220Z,13.65
2023-01-15T09:54:30.650Z,15.63
2023-01-15T09:57:04.217Z,20.63
2023-01-15T09:59:36.874Z,18.55
2023-01-15T10:02:19.684Z,14.55
2023-01-15T10:05:01.548Z,12.32
2023-01-15T10:07:38.551Z,20.17
2023-01-15T10:10:37.674Z,13.95
2023-01-15T10:13:25.027Z,19.85
2023-01-15T10:15:56.901Z,13.95
2023-01-15T10:18:30.190Z,11.23
2023-01-15T10:21:21.580Z,9.60
2023-01-15T10:24:03.343Z,14.88
2023-01-15T10:26:40.925Z,14.82
2023-01-15T10:29:19.632Z,11.88
2023-01-15T10:32:06.635Z,8.70
2023-01-15T10:35:06.311Z,9.63
2023-01-15T10:38:00.658Z,13.93
2023-01-15T10:40:45.847Z,10.93
2023-01-15T10:43:25.363Z,10.10
2023-01-15T10:46:01.692Z,11.85
2023-01-15T10:48:36.480Z,13.63
2023-01-15T10:51:19.036Z,12.50
2023-01-15T10:54:06.264Z,14.80
2023-01-15T10:56:46.727Z,19.02
2023-01-15T10:59:29.362Z,14.30
2023-01-15T11:02:03.864Z,13.70
2023-01-15T11:04:38.700Z,13.27
2023-01-15T11:07:29.090Z,12.93
2023-01-15T11:10:09.157Z,8.90
2023-01-15T11:12:58.336Z,15.60
2023-01-15T11:15:45.507Z,12.50
2023-01-15T11:18:44.505Z,12.32
2023-01-15T11:21:29.462Z,18.15
2023-01-15T11:24:28.126Z,7.40
2023-01-15T11:27:02.648Z,11.38
2023-01-15T11:29:38.658Z,10.10
2023-01-15T11:32:30.917Z,12.90
2023-01-15T11:35:17.886Z,12.43
2023-01-15T11:37:48.606Z,12.90
2023-01-15T11:40:21.427Z,14.15
2023-01-15T11:43:08.736Z,16.17
2023-01-15T11:46:09.264Z,13.63
2023-01-15T11:49:04.313Z,13.05
2023-01-15T11:51:49.719Z,12.43
2023-01-15T11:54:41.029Z,13.50
2023-01-15T11:57:30.156Z,19.67
2023-01-15T12:00:01.384Z,15.23
2023-01-15T12:02:38.629Z,11.65
2023-01-15T12:05:28.075Z,16.20
2023-01-15T12:08:02.879Z,14.65
2023-01-15T12:10:56.017Z,15.80
2023-01-15T12:13:40.040Z,14.95
2023-01-15T12:16:20.800Z,6.38
2023-01-15T12:18:59.286Z,13.88
2023-01-15T12:21:52.899Z,9.85
2023-01-15T12:24:47.878Z,14.88
2023-01-15T12:27:57.179Z,10.85
2023-01-15T12:30:43.966Z,13.20
2023-01-15T12:33:22.675Z,16.98
2023-01-15T12:35:58.834Z,15.50
2023-01-15T12:38:47.327Z,12.38
2023-01-15T12:41:51.553Z,8.50
2023-01-15T12:44:52.570Z,8.88
2023-01-15T12:47:42.600Z,13.73
2023-01-15T12:50:49.615Z,10.63
2023-01-15T12:53:29.150Z,15.82
2023-01-15T12:56:21.365Z,12.65
2023-01-15T12:59:03.344Z,12.60
2023-01-15T13:01:45.241Z,9.85
2023-01-15T13:04:19.968Z,9.65
2023-01-15T13:07:00.510Z,10.93
2023-01-15T13:09:38.546Z,15.10
2023-01-15T13:12:15.079Z,13.93
2023-01-15T13:14:46.982Z,16.40
2023-01-15T13:17:49.282Z,13.95
2023-01-15T13:20:45.169Z,17.92
2023-01-15T13:24:05.396Z,13.23
2023-01-15T13:27:19.028Z,19.10
2023-01-15T13:30:18.648Z,13.48
2023-01-15T13:33:14.433Z,12.20
2023-01-15T13:36:00.344Z,13.35
2023-01-15T13:38:44.911Z,17.75
2023-01-15T13:41:41.866Z,15.45
2023-01-15T13:44:46.673Z,12.00
2023-01-15T13:47:53.237Z,15.52
2023-01-15T13:50:31.572Z,18.42
2023-01-15T13:53:28.113Z,15.23
2023-01-15T13:56:12.945Z,16.00
2023-01-15T13:59:20.643Z,17.20
2023-01-15T14:02:24.959Z,14.32
2023-01-15T14:05:04.034Z,19.88
2023-01-15T14:07:38.632Z,16.67
2023-01-15T14:10:28.032Z,9.77
2023-01-15T14:13:15.144Z,13.18
2023-01-15T14:15:57.798Z,15.80
2023-01-15T14:18:53.233Z,14.40
2023-01-15T14:21:35.295Z,11.35
2023-01-15T14:24:37.925Z,14.60
2023-01-15T14:27:13.798Z,18.77
2023-01-15T14:30:12.893Z,9.25
2023-01-15T14:32:59.524Z,13.93
2023-01-15T14:35:38.076Z,14.13
2023-01-15T14:38:09.957Z,17.85
2023-01-15T14:40:59.917Z,14.35
2023-01-15T14:43:52.448Z,12.23
2023-01-15T14:46:30.245Z,15.10
2023-01-15T14:49:51.668Z,9.45
2023-01-15T14:52:45.812Z,11.38
2023-01-15T14:55:18.291Z,12.38
2023-01-15T14:58:32.305Z,10.13
2023-01-15T15:01:53.746Z,9.77
2023-01-15T15:04:35.087Z,6.68
2023-01-15T15:10:49.576Z,9.65
2023-01-15T15:13:48.450Z,6.53
2023-01-15T15:17:31.826Z,7.72
2023-01-15T15:24:05.337Z,10.85
2023-01-15T15:30:17.410Z,10.00
2023-01-15T15:36:30.673Z,8.55
2023-01-15T15:43:03.401Z,9.15
2023-01-15T15:49:13.900Z,11.80
2023-01-15T15:55:39.023Z,11.80
2023-01-15T16:01:48.322Z,11.98
2023-01-15T16:08:10.876Z,9.52
2023-01-15T16:11:17.271Z,8.43
2023-01-15T16:17:28.722Z,10.38
2023-01-15T16:20:16.806Z,10.82
2023-01-15T16:23:00.710Z,9.02
2023-01-15T16:25:44.216Z,12.95
2023-01-15T16:28:27.609Z,13.32
2023-01-15T16:31:02.920Z,11.32
2023-01-15T16:34:22.096Z,12.45
2023-01-15T16:37:32.678Z,14.02
2023-01-15T16:40:23.284Z,19.85
2023-01-15T16:46:51.375Z,13.90
2023-01-15T16:49:43.687Z,17.02
2023-01-15T16:52:32.466Z,22.17
2023-01-15T16:55:02.325Z,16.20
2023-01-15T16:57:36.516Z,13.05
2023-01-15T17:00:33.647Z,13.77
2023-01-15T17:03:14.164Z,13.48
2023-01-15T17:06:20.641Z,9.90
2023-01-15T17:09:20.299Z,13.23
2023-01-15T17:12:26.464Z,10.32
2023-01-15T17:15:35.309Z,11.90
2023-01-15T17:18:36.660Z,15.43
2023-01-15T17:21:23.799Z,14.20
2023-01-15T17:24:00.440Z,15.65
2023-01-15T17:26:43.213Z,18.33
2023-01-15T17:29:14.974Z,15.80
2023-01-15T17:32:36.424Z,16.92
2023-01-15T17:35:23.440Z,15.90
2023-01-15T17:37:56.355Z,14.60
2023-01-15T17:40:28.100Z,17.38
2023-01-15T17:43:04.239Z,19.10
2023-01-15T17:45:40.072Z,17.38
2023-01-15T17:48:28.796Z,26.73
2023-01-15T17:51:20.372Z,35.38
2023-01-15T17:57:46.848Z,27.27
2023-01-15T18:00:40.706Z,25.60
2023-01-15T18:03:50.191Z,24.02
2023-01-15T18:06:30.674Z,22.90
2023-01-15T18:09:10.033Z,22.05
2023-01-15T18:11:38.772Z,22.65
2023-01-15T18:14:16.774Z,25.38
2023-01-15T18:16:46.479Z,15.45
2023-01-15T18:19:16.278Z,15.90
2023-01-15T18:21:46.510Z,15.20
2023-01-15T18:24:24.020Z,13.63
2023-01-15T18:26:54.123Z,15.93
2023-01-15T18:29:41.073Z,15.18
2023-01-15T18:32:12.285Z,12.55
2023-01-15T18:34:59.263Z,18.08
2023-01-15T18:37:36.333Z,36.53
2023-01-15T18:40:21.741Z,44.53
2023-01-15T18:43:41.366Z,32.15
2023-01-15T18:46:27.530Z,33.33
2023-01-15T18:49:13.137Z,30.88
2023-01-15T18:55:33.219Z,20.33
2023-01-15T18:58:43.670Z,22.30
2023-01-15T19:01:18.668Z,16.23
2023-01-15T19:03:50.302Z,13.73
2023-01-15T19:06:40.583Z,22.85
2023-01-15T19:09:26.378Z,18.63
2023-01-15T19:12:01.753Z,23.88
2023-01-15T19:14:49.077Z,19.55
2023-01-15T19:17:37.985Z,38.70
2023-01-15T19:20:58.392Z,28.70
2023-01-15T19:23:32.020Z,33.78
2023-01-15T19:26:09.371Z,38.50
2023-01-15T19:29:14.745Z,34.20
2023-01-15T19:31:43.635Z,36.33
2023-01-15T19:34:34.309Z,40.17
2023-01-15T19:37:05.336Z,36.30
2023-01-15T19:39:34.340Z,44.20
2023-01-15T19:42:24.655Z,33.88
2023-01-15T19:45:12.325Z,27.13
2023-01-15T19:47:59.913Z,25.88
2023-01-15T19:50:35.855Z,36.97
2023-01-15T19:53:05.022Z,28.42
2023-01-15T19:55:46.594Z,35.97
2023-01-15T19:58:17.030Z,33.92
2023-01-15T20:01:06.786Z,38.95
2023-01-15T20:03:47.809Z,34.97
2023-01-15T20:06:17.517Z,32.00
2023-01-15T20:08:48.202Z,34.80
2023-01-15T20:11:18.066Z,32.90
2023-01-15T20:13:59.803Z,29.48
2023-01-15T20:16:34.555Z,25.95
2023-01-15T20:19:04.952Z,48.65
2023-01-15T20:21:33.747Z,42.15
2023-01-15T20:24:24.221Z,50.38
2023-01-15T20:27:10.175Z,39.55
2023-01-15T20:29:40.349Z,33.28
2023-01-15T20:32:25.514Z,35.88
2023-01-15T20:35:05.509Z,45.80
2023-01-15T20:37:41.262Z,30.42
2023-01-15T20:40:12.653Z,35.45
2023-01-15T20:43:02.574Z,34.85
2023-01-15T20:45:33.369Z,37.67
2023-01-15T20:48:21.522Z,36.45
2023-01-15T20:51:03.289Z,35.92
2023-01-15T20:54:28.024Z,25.17
2023-01-15T20:57:15.927Z,32.85
2023-01-15T20:59:50.662Z,44.10
2023-01-15T21:02:20.396Z,42.60
2023-01-15T21:04:51.196Z,43.55
2023-01-15T21:07:43.098Z,40.30
2023-01-15T21:10:23.482Z,33.33
2023-01-15T21:13:13.127Z,31.90
2023-01-15T21:15:44.780Z,28.58
2023-01-15T21:18:35.967Z,30.00
2023-01-15T21:21:10.599Z,31.50
2023-01-15T21:24:26.709Z,31.55
2023-01-15T21:26:57.127Z,34.50
2023-01-15T21:29:26.068Z,35.22
2023-01-15T21:32:08.100Z,36.05
2023-01-15T21:34:39.284Z,42.30
2023-01-15T21:37:10.274Z,45.85
2023-01-15T21:39:46.188Z,46.65
2023-01-15T21:42:50.801Z,53.65
2023-01-15T21:45:25.614Z,51.85
2023-01-15T21:48:01.593Z,48.10
2023-01-15T21:50:38.132Z,45.58
2023-01-15T21:53:17.402Z,52.15
2023-01-15T21:55:55.772Z,46.17
2023-01-15T21:58:40.178Z,45.10
2023-01-15T22:01:33.684Z,46.33
2023-01-15T22:04:06.265Z,49.60
2023-01-15T22:06:37.768Z,44.42
2023-01-15T22:09:13.784Z,46.70
2023-01-15T22:11:50.231Z,48.35
2023-01-15T22:14:29.095Z,44.45
2023-01-15T22:17:00.439Z,48.20
2023-01-15T22:19:32.486Z,46.65
2023-01-15T22:22:07.859Z,43.03
2023-01-15T22:24:48.495Z,42.42
2023-01-15T22:27:20.569Z,41.35
2023-01-15T22:29:50.641Z,45.70
2023-01-15T22:32:32.507Z,39.85
2023-01-15T22:35:09.217Z,44.35
2023-01-15T22:37:42.078Z,42.80
2023-01-15T22:40:12.160Z,45.10
2023-01-15T22:43:01.457Z,45.88
2023-01-15T22:45:31.609Z,48.33
2023-01-15T22:48:00.193Z,51.85
2023-01-15T22:50:28.917Z,52.38
2023-01-15T22:52:57.726Z,53.80
2023-01-15T22:55:26.418Z,65.07
2023-01-15T22:57:55.595Z,56.55
2023-01-15T23:00:24.455Z,55.55
2023-01-15T23:03:17.608Z,61.50
2023-01-15T23:05:46.224Z,69.70
2023-01-15T23:08:14.711Z,64.63
2023-01-15T23:10:50.037Z,59.83
2023-01-15T23:13:19.826Z,52.88
2023-01-15T23:15:59.365Z,51.53
2023-01-15T23:18:32.874Z,50.15
2023-01-15T23:21:06.675Z,45.10
2023-01-15T23:23:40.238Z,46.88
2023-01-15T23:26:11.792Z,47.55
2023-01-15T23:28:41.103Z,41.75
2023-01-15T23:31:12.891Z,39.20
2023-01-15T23:33:43.223Z,42.97
2023-01-15T23:36:18.139Z,35.63
2023-01-15T23:38:52.716Z,35.10
2023-01-15T23:41:44.265Z,35.38
2023-01-15T23:44:37.428Z,32.15
2023-01-15T23:47:12.318Z,41.03
2023-01-15T23:49:54.484Z,40.63
2023-01-15T23:52:26.945Z,43.85
2023-01-15T23:54:55.532Z,33.15
2023-01-15T23:57:32.847Z,33.92
